Time;durP1;ratioP1;P1;durP2;ratioP2;P2;SDS_P1;SDS_P2;PMS_P1;PMS_P2;Temp;Humidity;BMP_temperature;BMP_pressure;BME280_temperature;BME280_humidity;BME280_pressure;Samples;Min_cycle;Max_cycle;Signal;HPM_P1;HPM_P2
2022/02/17 00:02:44;;;;;;;0.13;0.10;;;;;;;;;;6236802;28;20066;-80
2022/02/17 00:05:48;;;;;;;0.10;0.10;;;;;;;;;;6255072;28;20060;-83
2022/02/17 00:08:56;;;;;;;0.10;0.10;;;;;;;;;;6269612;28;20539;-81
2022/02/17 00:11:58;;;;;;;1.15;0.20;;;;;;;;;;6254103;28;20041;-81
2022/02/17 00:14:59;;;;;;;0.65;0.10;;;;;;;;;;6233339;28;20097;-80
2022/02/17 00:18:14;;;;;;;0.10;0.10;;;;;;;;;;6245945;28;20065;-82
2022/02/17 00:21:15;;;;;;;0.20;0.10;;;;;;;;;;6221349;28;20204;-80
2022/02/17 00:24:17;;;;;;;0.10;0.10;;;;;;;;;;6221115;28;20132;-80
2022/02/17 00:27:19;;;;;;;0.20;0.10;;;;;;;;;;6246281;28;20046;-81
2022/02/17 00:30:21;;;;;;;0.20;0.10;;;;;;;;;;6246279;28;20128;-80
2022/02/17 00:33:22;;;;;;;0.05;0.03;;;;;;;;;;6245961;28;20087;-80
2022/02/17 00:36:24;;;;;;;0.10;0.10;;;;;;;;;;6247084;28;20053;-83
2022/02/17 00:39:25;;;;;;;0.70;0.10;;;;;;;;;;6244649;28;20050;-83
2022/02/17 00:42:27;;;;;;;1.38;0.20;;;;;;;;;;6238922;28;20049;-79
2022/02/17 00:45:29;;;;;;;0.32;0.10;;;;;;;;;;6239538;28;20087;-82
2022/02/17 00:48:30;;;;;;;0.45;0.20;;;;;;;;;;6228683;28;20465;-82
2022/02/17 00:51:33;;;;;;;0.20;0.20;;;;;;;;;;6251940;28;20077;-82
2022/02/17 00:54:35;;;;;;;0.20;0.10;;;;;;;;;;6245694;28;20065;-83
2022/02/17 00:57:37;;;;;;;0.50;0.10;;;;;;;;;;6241006;28;20096;-82
2022/02/17 01:00:39;;;;;;;1.23;0.20;;;;;;;;;;6219377;28;20084;-79
2022/02/17 01:03:43;;;;;;;0.40;0.10;;;;;;;;;;6257342;28;20128;-83
2022/02/17 01:06:45;;;;;;;0.40;0.10;;;;;;;;;;6213752;28;20065;-80
2022/02/17 01:09:47;;;;;;;0.53;0.10;;;;;;;;;;6243147;28;20118;-80
2022/02/17 01:12:50;;;;;;;1.10;0.20;;;;;;;;;;6248339;28;20443;-81
2022/02/17 01:15:55;;;;;;;0.20;0.10;;;;;;;;;;6266760;28;20104;-81
2022/02/17 01:18:57;;;;;;;0.22;0.15;;;;;;;;;;6245446;28;20041;-81
2022/02/17 01:21:59;;;;;;;0.10;0.10;;;;;;;;;;6243790;28;20109;-81
2022/02/17 01:25:03;;;;;;;0.63;0.10;;;;;;;;;;6244512;28;20088;-82
2022/02/17 01:28:09;;;;;;;0.10;0.10;;;;;;;;;;6259113;28;20045;-82
2022/02/17 01:31:10;;;;;;;0.03;0.03;;;;;;;;;;6257997;28;20056;-80
2022/02/17 01:34:12;;;;;;;0.10;0.10;;;;;;;;;;6262119;28;20115;-81
2022/02/17 01:37:25;;;;;;;0.45;0.17;;;;;;;;;;6256440;28;20132;-82
2022/02/17 01:40:30;;;;;;;0.93;0.20;;;;;;;;;;6242353;28;20045;-79
2022/02/17 01:43:33;;;;;;;0.10;0.10;;;;;;;;;;6243841;28;20048;-82
2022/02/17 01:46:38;;;;;;;0.20;0.10;;;;;;;;;;6241310;28;20686;-81
2022/02/17 01:49:40;;;;;;;0.00;0.00;;;;;;;;;;6235365;28;20632;-81
2022/02/17 01:52:42;;;;;;;0.00;0.00;;;;;;;;;;6217866;28;20054;-83
2022/02/17 01:55:49;;;;;;;1.85;0.10;;;;;;;;;;6233003;28;20053;-81
2022/02/17 01:58:52;;;;;;;0.20;0.03;;;;;;;;;;6234452;28;20065;-80
2022/02/17 02:02:02;;;;;;;0.10;0.10;;;;;;;;;;6240567;28;20823;-82
2022/02/17 02:05:04;;;;;;;0.40;0.20;;;;;;;;;;6241405;28;20287;-82
2022/02/17 02:08:10;;;;;;;2.63;0.60;;;;;;;;;;6242552;28;20049;-82
2022/02/17 02:11:13;;;;;;;1.20;0.22;;;;;;;;;;6257127;28;20056;-82
2022/02/17 02:14:25;;;;;;;0.88;0.32;;;;;;;;;;6257053;28;20093;-80
2022/02/17 02:17:30;;;;;;;0.30;0.20;;;;;;;;;;6214832;28;20048;-79
2022/02/17 02:20:32;;;;;;;0.85;0.22;;;;;;;;;;6243352;28;20045;-81
2022/02/17 02:23:35;;;;;;;1.55;0.40;;;;;;;;;;6258741;28;20725;-80
2022/02/17 02:26:39;;;;;;;0.90;0.32;;;;;;;;;;6256750;28;20075;-79
2022/02/17 02:29:42;;;;;;;0.75;0.30;;;;;;;;;;6241532;28;20049;-81
2022/02/17 02:32:45;;;;;;;1.80;0.20;;;;;;;;;;6243149;28;20049;-81
2022/02/17 02:35:48;;;;;;;2.30;0.35;;;;;;;;;;6233366;28;20041;-78
2022/02/17 02:38:51;;;;;;;0.30;0.20;;;;;;;;;;6236651;28;20034;-81
2022/02/17 02:41:57;;;;;;;2.47;0.40;;;;;;;;;;6238582;28;20052;-81
2022/02/17 02:44:58;;;;;;;0.50;0.30;;;;;;;;;;6258159;28;20056;-82
2022/02/17 02:48:09;;;;;;;1.90;0.40;;;;;;;;;;6236873;28;20038;-78
2022/02/17 02:51:10;;;;;;;3.65;0.47;;;;;;;;;;6218137;28;20092;-79
2022/02/17 02:54:12;;;;;;;1.83;0.50;;;;;;;;;;6216697;28;20152;-80
2022/02/17 02:57:15;;;;;;;2.58;0.50;;;;;;;;;;6257873;28;20046;-80
2022/02/17 03:00:18;;;;;;;2.58;0.60;;;;;;;;;;6239089;28;20124;-81
2022/02/17 03:03:19;;;;;;;1.75;0.63;;;;;;;;;;6236987;28;20065;-83
2022/02/17 03:06:21;;;;;;;5.30;1.15;;;;;;;;;;6231895;28;20050;-79
2022/02/17 03:09:24;;;;;;;5.80;1.25;;;;;;;;;;6215399;28;20076;-82
2022/02/17 03:12:26;;;;;;;3.13;1.17;;;;;;;;;;6225206;28;20052;-82
2022/02/17 03:15:28;;;;;;;7.38;1.95;;;;;;;;;;6239686;28;20452;-82
2022/02/17 03:18:29;;;;;;;7.38;1.38;;;;;;;;;;6254105;28;20115;-79
2022/02/17 03:21:31;;;;;;;5.25;0.95;;;;;;;;;;6257464;28;20034;-82
2022/02/17 03:24:33;;;;;;;5.30;0.93;;;;;;;;;;6231365;28;20054;-81
2022/02/17 03:27:37;;;;;;;6.25;1.15;;;;;;;;;;6217783;28;20454;-80
2022/02/17 03:31:02;;;;;;;4.93;1.33;;;;;;;;;;6220502;28;20046;-79
2022/02/17 03:34:06;;;;;;;4.30;1.40;;;;;;;;;;6220696;28;20077;-79
2022/02/17 03:37:09;;;;;;;4.57;0.90;;;;;;;;;;6220647;28;20052;-81
2022/02/17 03:40:12;;;;;;;8.18;1.30;;;;;;;;;;6221019;28;20053;-82
2022/02/17 03:43:26;;;;;;;5.50;1.63;;;;;;;;;;6221225;28;20042;-82
2022/02/17 03:46:27;;;;;;;5.13;0.98;;;;;;;;;;6246201;28;20041;-82
2022/02/17 03:49:29;;;;;;;7.55;1.20;;;;;;;;;;6220614;28;20056;-79
2022/02/17 03:52:31;;;;;;;8.32;1.48;;;;;;;;;;6220452;28;20088;-81
2022/02/17 03:55:58;;;;;;;7.43;1.92;;;;;;;;;;6235456;28;20045;-81
2022/02/17 03:59:20;;;;;;;8.65;1.30;;;;;;;;;;6233959;28;20072;-81
2022/02/17 04:02:22;;;;;;;10.38;1.55;;;;;;;;;;6218683;28;20045;-81
2022/02/17 04:05:23;;;;;;;7.95;1.60;;;;;;;;;;6235344;28;20046;-80
2022/02/17 04:08:33;;;;;;;6.45;1.33;;;;;;;;;;6236943;28;20066;-80
2022/02/17 04:11:35;;;;;;;6.28;1.70;;;;;;;;;;6234461;28;20111;-80
2022/02/17 04:14:37;;;;;;;9.77;1.40;;;;;;;;;;6234948;28;20052;-79
2022/02/17 04:17:42;;;;;;;6.18;1.50;;;;;;;;;;6219449;28;20042;-79
2022/02/17 04:20:51;;;;;;;6.00;1.33;;;;;;;;;;6220171;28;20041;-81
2022/02/17 04:24:11;;;;;;;9.15;1.90;;;;;;;;;;6283698;28;20068;-81
2022/02/17 04:27:26;;;;;;;6.20;1.42;;;;;;;;;;6248340;28;20048;-81
2022/02/17 04:30:42;;;;;;;7.93;1.70;;;;;;;;;;6220921;28;20072;-81
2022/02/17 04:33:44;;;;;;;12.05;1.88;;;;;;;;;;6234079;28;20499;-81
2022/02/17 04:36:53;;;;;;;9.63;1.45;;;;;;;;;;6234874;28;20042;-82
2022/02/17 04:40:00;;;;;;;6.55;1.40;;;;;;;;;;6233538;28;20038;-81
2022/02/17 04:43:05;;;;;;;14.57;1.85;;;;;;;;;;6232551;28;20537;-82
2022/02/17 04:46:07;;;;;;;11.27;1.80;;;;;;;;;;6257762;28;20060;-82
2022/02/17 04:49:09;;;;;;;10.95;1.65;;;;;;;;;;6240358;28;20049;-80
2022/02/17 04:52:11;;;;;;;6.78;1.60;;;;;;;;;;6229002;28;20040;-79
2022/02/17 04:55:13;;;;;;;9.38;1.63;;;;;;;;;;6254986;28;20076;-80
2022/02/17 04:58:17;;;;;;;10.85;1.65;;;;;;;;;;6247669;28;20048;-80
2022/02/17 05:01:19;;;;;;;7.45;1.30;;;;;;;;;;6259870;28;20056;-80
2022/02/17 05:04:41;;;;;;;8.75;1.48;;;;;;;;;;6200083;28;20054;-82
2022/02/17 05:07:47;;;;;;;4.53;1.33;;;;;;;;;;6215487;28;20057;-79
2022/02/17 05:10:52;;;;;;;12.45;2.03;;;;;;;;;;6222245;28;20041;-82
2022/02/17 05:13:54;;;;;;;7.30;1.55;;;;;;;;;;6259921;28;20053;-80
2022/02/17 05:16:56;;;;;;;9.07;1.30;;;;;;;;;;6216592;28;20056;-80
2022/02/17 05:20:01;;;;;;;7.22;1.67;;;;;;;;;;6235849;28;20034;-82
2022/02/17 05:23:17;;;;;;;7.97;1.42;;;;;;;;;;6252064;28;20041;-79
2022/02/17 05:26:37;;;;;;;10.90;2.50;;;;;;;;;;6243625;28;20054;-81
2022/02/17 05:29:56;;;;;;;15.27;2.50;;;;;;;;;;6241098;28;20057;-81
2022/02/17 05:33:18;;;;;;;16.42;2.95;;;;;;;;;;6229918;28;20053;-82
2022/02/17 05:36:49;;;;;;;11.32;2.60;;;;;;;;;;6249689;28;20048;-80
2022/02/17 05:40:16;;;;;;;12.43;3.08;;;;;;;;;;6248968;28;20509;-80
2022/02/17 05:43:18;;;;;;;8.38;1.70;;;;;;;;;;6241243;28;20522;-83
2022/02/17 05:46:20;;;;;;;17.40;4.20;;;;;;;;;;6254285;28;20088;-82
2022/02/17 05:49:24;;;;;;;16.20;3.90;;;;;;;;;;6218976;28;20071;-80
2022/02/17 05:52:25;;;;;;;15.68;3.92;;;;;;;;;;6218469;28;20188;-81
2022/02/17 05:55:27;;;;;;;12.20;2.05;;;;;;;;;;6221250;28;20045;-80
2022/02/17 05:58:29;;;;;;;15.27;3.03;;;;;;;;;;6258088;28;20038;-82
2022/02/17 06:01:31;;;;;;;14.68;2.63;;;;;;;;;;6251746;28;20126;-80
2022/02/17 06:04:32;;;;;;;12.80;4.30;;;;;;;;;;6218006;28;20725;-80
2022/02/17 06:07:34;;;;;;;15.00;2.20;;;;;;;;;;6216879;28;20407;-81
2022/02/17 06:10:36;;;;;;;10.95;2.08;;;;;;;;;;6232903;28;20038;-81
2022/02/17 06:13:38;;;;;;;11.30;2.00;;;;;;;;;;6214732;28;20049;-80
2022/02/17 06:16:39;;;;;;;11.38;1.75;;;;;;;;;;6215416;28;20099;-78
2022/02/17 06:19:41;;;;;;;10.45;2.45;;;;;;;;;;6216819;28;20056;-81
2022/02/17 06:22:44;;;;;;;11.25;1.90;;;;;;;;;;6238013;28;20413;-80
2022/02/17 06:25:46;;;;;;;7.78;1.92;;;;;;;;;;6233879;28;20069;-77
2022/02/17 06:28:47;;;;;;;12.23;2.33;;;;;;;;;;6244242;28;20072;-77
2022/02/17 06:31:49;;;;;;;17.05;2.20;;;;;;;;;;6235812;28;20068;-78
2022/02/17 06:34:50;;;;;;;11.52;1.90;;;;;;;;;;6255023;28;20089;-77
2022/02/17 06:37:53;;;;;;;7.47;1.63;;;;;;;;;;6251385;28;20048;-77
2022/02/17 06:40:54;;;;;;;16.02;2.40;;;;;;;;;;6240740;28;20780;-78
2022/02/17 06:43:57;;;;;;;13.77;1.75;;;;;;;;;;6245952;28;20061;-78
2022/02/17 06:46:59;;;;;;;12.70;2.97;;;;;;;;;;6257741;28;20060;-78
2022/02/17 06:50:01;;;;;;;13.23;1.98;;;;;;;;;;6231150;28;20053;-78
2022/02/17 06:53:03;;;;;;;19.10;3.28;;;;;;;;;;6226766;28;20109;-78
2022/02/17 06:56:05;;;;;;;15.70;2.40;;;;;;;;;;6236219;28;20101;-78
2022/02/17 06:59:06;;;;;;;17.30;2.50;;;;;;;;;;6245259;28;20051;-81
2022/02/17 07:02:08;;;;;;;16.40;2.25;;;;;;;;;;6234073;28;20053;-79
2022/02/17 07:05:09;;;;;;;13.73;2.38;;;;;;;;;;6238241;28;20140;-80
2022/02/17 07:08:12;;;;;;;10.68;2.40;;;;;;;;;;6225550;28;20046;-80
2022/02/17 07:11:13;;;;;;;11.40;2.57;;;;;;;;;;6229839;28;20136;-80
2022/02/17 07:14:15;;;;;;;14.13;3.00;;;;;;;;;;6261527;28;20192;-81
2022/02/17 07:17:19;;;;;;;17.73;2.15;;;;;;;;;;6247246;28;20041;-78
2022/02/17 07:20:21;;;;;;;11.07;1.95;;;;;;;;;;6249093;28;20049;-81
2022/02/17 07:23:24;;;;;;;19.95;2.22;;;;;;;;;;6253891;28;20049;-81
2022/02/17 07:26:26;;;;;;;;;;;;;;;;;;6249564;28;20045;-82
2022/02/17 07:29:29;;;;;;;9.23;2.13;;;;;;;;;;6261549;28;19972;-81
2022/02/17 07:32:31;;;;;;;10.93;1.67;;;;;;;;;;6249526;28;20072;-79
2022/02/17 07:35:33;;;;;;;10.98;2.28;;;;;;;;;;6225625;28;20053;-81
2022/02/17 07:38:35;;;;;;;12.45;1.90;;;;;;;;;;6242540;28;20111;-80
2022/02/17 07:41:37;;;;;;;17.05;2.22;;;;;;;;;;6229285;28;20104;-80
2022/02/17 07:44:39;;;;;;;12.60;2.40;;;;;;;;;;6226266;28;20449;-81
2022/02/17 07:47:45;;;;;;;9.90;2.63;;;;;;;;;;6252331;28;20049;-80
2022/02/17 07:50:48;;;;;;;10.55;2.20;;;;;;;;;;6239274;28;20688;-82
2022/02/17 07:53:50;;;;;;;12.68;2.13;;;;;;;;;;6226038;28;20042;-81
2022/02/17 07:56:52;;;;;;;11.98;2.38;;;;;;;;;;6224253;28;20065;-80
2022/02/17 07:59:53;;;;;;;18.85;3.50;;;;;;;;;;6225262;28;20112;-82
2022/02/17 08:02:55;;;;;;;16.40;2.28;;;;;;;;;;6226189;28;20053;-80
2022/02/17 08:06:00;;;;;;;11.80;2.90;;;;;;;;;;6244506;28;20045;-79
2022/02/17 08:09:22;;;;;;;10.80;2.28;;;;;;;;;;6254174;28;20058;-81
2022/02/17 08:12:24;;;;;;;14.17;2.17;;;;;;;;;;6234065;28;20038;-80
2022/02/17 08:15:26;;;;;;;11.38;2.40;;;;;;;;;;6236897;28;20045;-79
2022/02/17 08:18:27;;;;;;;14.38;2.25;;;;;;;;;;6258498;28;20048;-81
2022/02/17 08:21:29;;;;;;;11.60;2.47;;;;;;;;;;6244629;28;20064;-79
2022/02/17 08:24:31;;;;;;;15.20;2.10;;;;;;;;;;6246606;28;20131;-81
2022/02/17 08:27:34;;;;;;;11.57;2.15;;;;;;;;;;6245719;28;20068;-81
2022/02/17 08:30:36;;;;;;;12.45;2.28;;;;;;;;;;6248807;28;20045;-79
2022/02/17 08:33:38;;;;;;;10.77;1.98;;;;;;;;;;6246253;28;20188;-81
2022/02/17 08:36:41;;;;;;;;;;;;;;;;;;6261585;28;20042;-79
2022/02/17 08:39:43;;;;;;;11.23;2.30;;;;;;;;;;6261584;28;19929;-79
2022/02/17 08:42:44;;;;;;;14.80;2.22;;;;;;;;;;6225975;28;20308;-82
2022/02/17 08:45:46;;;;;;;13.68;2.35;;;;;;;;;;6225049;28;20045;-81
2022/02/17 08:48:49;;;;;;;16.65;2.15;;;;;;;;;;6247731;28;20399;-82
2022/02/17 08:51:50;;;;;;;15.85;3.08;;;;;;;;;;6259897;28;20045;-81
2022/02/17 08:54:52;;;;;;;16.25;2.28;;;;;;;;;;6238732;28;20053;-79
2022/02/17 08:57:54;;;;;;;12.65;2.10;;;;;;;;;;6237935;28;20750;-81
2022/02/17 09:00:58;;;;;;;12.18;1.95;;;;;;;;;;6228392;28;20045;-82
2022/02/17 09:04:00;;;;;;;5.47;1.40;;;;;;;;;;6239025;28;20049;-81
2022/02/17 09:07:04;;;;;;;14.57;2.33;;;;;;;;;;6230537;28;20052;-82
2022/02/17 09:10:07;;;;;;;9.38;1.83;;;;;;;;;;6239470;28;20061;-81
2022/02/17 09:13:08;;;;;;;8.60;1.75;;;;;;;;;;6258750;28;20071;-81
2022/02/17 09:16:10;;;;;;;10.85;2.35;;;;;;;;;;6245672;28;20109;-81
2022/02/17 09:19:12;;;;;;;14.20;2.17;;;;;;;;;;6235450;28;20053;-81
2022/02/17 09:22:13;;;;;;;8.93;1.80;;;;;;;;;;6253198;28;20114;-81
2022/02/17 09:25:15;;;;;;;8.43;2.33;;;;;;;;;;6260176;28;20049;-80
2022/02/17 09:28:17;;;;;;;7.25;1.73;;;;;;;;;;6242768;28;20139;-80
2022/02/17 09:31:19;;;;;;;13.20;2.20;;;;;;;;;;6241703;28;20132;-82
2022/02/17 09:34:21;;;;;;;11.68;2.13;;;;;;;;;;6220854;28;20052;-80
2022/02/17 09:37:23;;;;;;;12.75;2.60;;;;;;;;;;6247244;28;20533;-79
2022/02/17 09:40:25;;;;;;;13.23;2.42;;;;;;;;;;6260051;28;20045;-77
2022/02/17 09:43:27;;;;;;;13.30;2.70;;;;;;;;;;6258614;28;20254;-80
2022/02/17 09:46:28;;;;;;;15.95;2.70;;;;;;;;;;6243590;28;20050;-82
2022/02/17 09:49:30;;;;;;;14.48;4.05;;;;;;;;;;6219784;28;20054;-80
2022/02/17 09:52:32;;;;;;;10.45;2.35;;;;;;;;;;6217962;28;20049;-81
2022/02/17 09:55:34;;;;;;;13.07;3.00;;;;;;;;;;6218823;28;20073;-80
2022/02/17 09:58:36;;;;;;;14.13;2.20;;;;;;;;;;6235690;28;20063;-78
2022/02/17 10:01:38;;;;;;;7.35;2.25;;;;;;;;;;6240937;28;20038;-77
2022/02/17 10:04:41;;;;;;;10.55;1.75;;;;;;;;;;6222785;28;20045;-77
2022/02/17 10:07:44;;;;;;;15.40;2.67;;;;;;;;;;6224781;28;20129;-78
2022/02/17 10:10:46;;;;;;;12.73;2.40;;;;;;;;;;6234589;28;20038;-80
2022/02/17 10:14:07;;;;;;;10.93;2.13;;;;;;;;;;6227773;28;20130;-78
2022/02/17 10:17:14;;;;;;;12.55;1.90;;;;;;;;;;6243771;28;20141;-79
2022/02/17 10:20:15;;;;;;;11.13;2.65;;;;;;;;;;6224936;28;20203;-81
2022/02/17 10:23:17;;;;;;;16.77;2.58;;;;;;;;;;6230903;28;20057;-78
2022/02/17 10:26:22;;;;;;;13.20;2.97;;;;;;;;;;6232492;28;20199;-81
2022/02/17 10:29:23;;;;;;;13.48;2.10;;;;;;;;;;6242061;28;20053;-80
2022/02/17 10:32:26;;;;;;;19.37;3.20;;;;;;;;;;6240980;28;20564;-78
2022/02/17 10:35:28;;;;;;;10.50;1.92;;;;;;;;;;6244308;28;20049;-81
2022/02/17 10:38:30;;;;;;;12.15;1.92;;;;;;;;;;6258249;28;20052;-79
2022/02/17 10:41:50;;;;;;;14.85;2.80;;;;;;;;;;6243073;28;20426;-80
2022/02/17 10:44:54;;;;;;;5.30;1.50;;;;;;;;;;6244001;28;20600;-80
2022/02/17 10:48:14;;;;;;;3.55;1.20;;;;;;;;;;6261049;28;20120;-80
2022/02/17 10:51:16;;;;;;;4.63;1.67;;;;;;;;;;6258340;28;20073;-79
2022/02/17 10:54:21;;;;;;;6.63;2.40;;;;;;;;;;6240976;28;20561;-81
2022/02/17 10:57:27;;;;;;;6.75;2.03;;;;;;;;;;6217969;28;20608;-79
2022/02/17 11:00:29;;;;;;;8.23;2.25;;;;;;;;;;6232448;28;20101;-81
2022/02/17 11:03:32;;;;;;;10.25;2.10;;;;;;;;;;6251860;28;20425;-82
2022/02/17 11:06:41;;;;;;;7.57;1.80;;;;;;;;;;6243555;28;20055;-80
2022/02/17 11:09:45;;;;;;;12.88;2.28;;;;;;;;;;6242342;28;20041;-80
2022/02/17 11:12:47;;;;;;;8.63;1.98;;;;;;;;;;6245152;28;20041;-81
2022/02/17 11:15:52;;;;;;;12.25;2.80;;;;;;;;;;6245001;28;20179;-82
2022/02/17 11:18:58;;;;;;;14.00;2.65;;;;;;;;;;6251892;28;20045;-80
2022/02/17 11:22:04;;;;;;;7.20;1.98;;;;;;;;;;6244490;28;20108;-81
2022/02/17 11:25:10;;;;;;;8.95;2.17;;;;;;;;;;6233170;28;20045;-81
2022/02/17 11:28:14;;;;;;;17.08;2.78;;;;;;;;;;6218983;28;20516;-81
2022/02/17 11:31:17;;;;;;;11.77;2.60;;;;;;;;;;6217294;28;20126;-81
2022/02/17 11:34:36;;;;;;;10.93;2.20;;;;;;;;;;6217004;28;20128;-80
2022/02/17 11:37:44;;;;;;;7.07;2.30;;;;;;;;;;6218116;28;20430;-81
2022/02/17 11:41:07;;;;;;;10.85;2.10;;;;;;;;;;6215278;28;20050;-82
2022/02/17 11:44:22;;;;;;;8.93;2.00;;;;;;;;;;6232744;28;20121;-83
2022/02/17 11:47:49;;;;;;;9.80;1.65;;;;;;;;;;6218315;28;20749;-81
2022/02/17 11:50:51;;;;;;;11.27;1.77;;;;;;;;;;6220714;28;20052;-82
2022/02/17 11:54:18;;;;;;;12.50;2.33;;;;;;;;;;6219428;28;20542;-82
2022/02/17 11:57:36;;;;;;;10.30;1.67;;;;;;;;;;6220277;28;20756;-82
2022/02/17 12:00:38;;;;;;;5.43;1.88;;;;;;;;;;6219609;28;20081;-82
2022/02/17 12:04:05;;;;;;;5.78;1.40;;;;;;;;;;6239803;28;20045;-81
2022/02/17 12:07:34;;;;;;;6.35;1.25;;;;;;;;;;6244686;28;20498;-82
2022/02/17 12:10:38;;;;;;;5.53;1.23;;;;;;;;;;6258173;28;20064;-81
2022/02/17 12:13:40;;;;;;;4.53;1.25;;;;;;;;;;6244973;28;20052;-81
2022/02/17 12:16:43;;;;;;;6.72;1.52;;;;;;;;;;6244570;28;20041;-82
2022/02/17 12:19:46;;;;;;;5.87;1.10;;;;;;;;;;6260047;28;20116;-82
2022/02/17 12:22:50;;;;;;;6.05;1.23;;;;;;;;;;6234072;28;20045;-82
2022/02/17 12:25:54;;;;;;;7.32;1.50;;;;;;;;;;6231438;28;20523;-83
2022/02/17 12:28:55;;;;;;;4.68;1.20;;;;;;;;;;6244216;28;20041;-81
2022/02/17 12:31:59;;;;;;;4.88;1.60;;;;;;;;;;6243590;28;20183;-82
2022/02/17 12:35:05;;;;;;;7.82;1.92;;;;;;;;;;6246164;28;20045;-82
2022/02/17 12:38:06;;;;;;;8.18;1.50;;;;;;;;;;6258844;28;20113;-82
2022/02/17 12:41:12;;;;;;;5.97;1.20;;;;;;;;;;6236246;28;20042;-82
2022/02/17 12:44:23;;;;;;;6.85;1.30;;;;;;;;;;6220811;28;20085;-81
2022/02/17 12:47:25;;;;;;;4.03;1.30;;;;;;;;;;6220587;28;20518;-82
2022/02/17 12:50:28;;;;;;;12.30;1.70;;;;;;;;;;6219062;28;20084;-82
2022/02/17 12:53:51;;;;;;;9.60;1.63;;;;;;;;;;6219965;28;20507;-81
2022/02/17 12:57:06;;;;;;;5.67;1.00;;;;;;;;;;6237237;28;20144;-81
2022/02/17 13:00:11;;;;;;;5.40;1.40;;;;;;;;;;6243840;28;20045;-82
2022/02/17 13:03:13;;;;;;;9.52;1.50;;;;;;;;;;6242331;28;20097;-83
2022/02/17 13:06:18;;;;;;;6.88;1.73;;;;;;;;;;6228775;28;20056;-83
2022/02/17 13:09:24;;;;;;;7.97;1.63;;;;;;;;;;6244926;28;20049;-82
2022/02/17 13:12:25;;;;;;;7.60;1.10;;;;;;;;;;6240704;28;20052;-83
2022/02/17 13:15:31;;;;;;;9.00;2.60;;;;;;;;;;6236394;28;20453;-84
2022/02/17 13:18:34;;;;;;;11.70;1.77;;;;;;;;;;6250780;28;20061;-83
2022/02/17 13:21:35;;;;;;;11.25;1.60;;;;;;;;;;6227407;28;20567;-83
2022/02/17 13:24:40;;;;;;;7.05;1.30;;;;;;;;;;6239605;28;20118;-83
2022/02/17 13:27:44;;;;;;;8.02;2.88;;;;;;;;;;6259617;28;20050;-81
2022/02/17 13:30:51;;;;;;;9.15;1.95;;;;;;;;;;6252386;28;20053;-82
2022/02/17 13:34:11;;;;;;;12.27;2.67;;;;;;;;;;6225330;28;20156;-83
2022/02/17 13:37:13;;;;;;;13.95;3.22;;;;;;;;;;6230266;28;20526;-82
2022/02/17 13:40:17;;;;;;;12.23;2.60;;;;;;;;;;6232322;28;20125;-82
2022/02/17 13:43:20;;;;;;;17.25;4.75;;;;;;;;;;6216349;28;20049;-82
2022/02/17 13:46:22;;;;;;;9.25;3.05;;;;;;;;;;6228271;28;20128;-82
2022/02/17 13:49:24;;;;;;;12.38;3.00;;;;;;;;;;6218784;28;20065;-82
2022/02/17 13:52:29;;;;;;;11.90;1.70;;;;;;;;;;6215741;28;20149;-82
2022/02/17 13:55:34;;;;;;;7.90;2.42;;;;;;;;;;6232964;28;20052;-80
2022/02/17 13:58:36;;;;;;;12.65;3.20;;;;;;;;;;6244417;28;20045;-81
2022/02/17 14:01:45;;;;;;;23.80;7.85;;;;;;;;;;6237859;28;20073;-81
2022/02/17 14:04:56;;;;;;;14.57;4.63;;;;;;;;;;6218673;28;20383;-82
2022/02/17 14:07:58;;;;;;;16.27;5.10;;;;;;;;;;6219505;28;20144;-82
2022/02/17 14:11:00;;;;;;;11.15;3.22;;;;;;;;;;6219273;28;20042;-81
2022/02/17 14:14:01;;;;;;;12.75;2.60;;;;;;;;;;6218914;28;20122;-78
2022/02/17 14:17:05;;;;;;;10.27;1.92;;;;;;;;;;6226308;28;20132;-80
2022/02/17 14:20:10;;;;;;;8.20;2.03;;;;;;;;;;6256993;28;20045;-81
2022/02/17 14:23:12;;;;;;;9.98;1.98;;;;;;;;;;6242917;28;20120;-82
2022/02/17 14:26:15;;;;;;;7.28;2.00;;;;;;;;;;6254154;28;20052;-81
2022/02/17 14:29:17;;;;;;;4.15;1.08;;;;;;;;;;6231758;28;20056;-80
2022/02/17 14:32:19;;;;;;;5.03;1.30;;;;;;;;;;6216079;28;20119;-81
2022/02/17 14:35:20;;;;;;;2.95;1.00;;;;;;;;;;6219253;28;20126;-81
2022/02/17 14:38:22;;;;;;;3.90;0.95;;;;;;;;;;6219878;28;20133;-82
2022/02/17 14:41:30;;;;;;;5.32;0.95;;;;;;;;;;6233165;28;20066;-82
2022/02/17 14:44:31;;;;;;;5.90;1.40;;;;;;;;;;6234800;28;20164;-80
2022/02/17 14:47:34;;;;;;;3.05;1.08;;;;;;;;;;6218592;28;20573;-81
2022/02/17 14:50:36;;;;;;;5.93;1.15;;;;;;;;;;6218329;28;20188;-81
2022/02/17 14:53:38;;;;;;;4.70;1.02;;;;;;;;;;6233358;28;20135;-82
2022/02/17 14:56:39;;;;;;;7.03;1.33;;;;;;;;;;6217824;28;20101;-82
2022/02/17 14:59:41;;;;;;;5.35;1.02;;;;;;;;;;6226578;28;20462;-82
2022/02/17 15:02:44;;;;;;;4.35;1.08;;;;;;;;;;6233986;28;20044;-81
2022/02/17 15:05:46;;;;;;;11.45;2.35;;;;;;;;;;6244423;28;20049;-82
2022/02/17 15:08:48;;;;;;;6.68;1.33;;;;;;;;;;6240851;28;20037;-82
2022/02/17 15:11:50;;;;;;;4.18;1.20;;;;;;;;;;6218825;28;20105;-82
2022/02/17 15:14:52;;;;;;;6.00;1.27;;;;;;;;;;6218151;28;20109;-82
2022/02/17 15:17:53;;;;;;;6.25;1.17;;;;;;;;;;6201281;28;20132;-81
2022/02/17 15:20:56;;;;;;;9.27;1.40;;;;;;;;;;6241137;28;20115;-82
2022/02/17 15:23:58;;;;;;;12.48;1.45;;;;;;;;;;6249915;28;20053;-81
2022/02/17 15:27:01;;;;;;;8.85;1.95;;;;;;;;;;6227621;28;20042;-81
2022/02/17 15:30:04;;;;;;;7.47;2.13;;;;;;;;;;6221984;28;20038;-80
2022/02/17 15:33:06;;;;;;;4.68;1.35;;;;;;;;;;6252175;28;20051;-80
2022/02/17 15:36:07;;;;;;;7.20;1.30;;;;;;;;;;6246612;28;20085;-82
2022/02/17 15:39:09;;;;;;;8.70;1.35;;;;;;;;;;6248348;28;20131;-82
2022/02/17 15:42:12;;;;;;;7.13;1.45;;;;;;;;;;6247686;28;20045;-83
2022/02/17 15:45:15;;;;;;;8.38;1.45;;;;;;;;;;6247082;28;20088;-83
2022/02/17 15:48:17;;;;;;;4.10;1.50;;;;;;;;;;6247549;28;20049;-81
2022/02/17 15:51:18;;;;;;;6.60;1.83;;;;;;;;;;6233604;28;20157;-81
2022/02/17 15:54:21;;;;;;;6.70;1.40;;;;;;;;;;6222938;28;20049;-81
2022/02/17 15:57:24;;;;;;;7.90;1.50;;;;;;;;;;6236602;28;20073;-81
2022/02/17 16:00:25;;;;;;;6.85;1.33;;;;;;;;;;6260869;28;20119;-82
2022/02/17 16:03:29;;;;;;;8.90;1.77;;;;;;;;;;6234303;28;20127;-81
2022/02/17 16:06:32;;;;;;;7.70;1.58;;;;;;;;;;6238037;28;20069;-82
2022/02/17 16:09:33;;;;;;;6.80;1.52;;;;;;;;;;6233203;28;20491;-81
2022/02/17 16:12:35;;;;;;;8.68;1.30;;;;;;;;;;6221957;28;20122;-81
2022/02/17 16:15:43;;;;;;;6.18;1.20;;;;;;;;;;6240906;28;20180;-81
2022/02/17 16:18:45;;;;;;;8.57;1.60;;;;;;;;;;6248375;28;20107;-81
2022/02/17 16:21:48;;;;;;;6.55;1.23;;;;;;;;;;6261824;28;20069;-81
2022/02/17 16:24:50;;;;;;;7.68;1.20;;;;;;;;;;6250836;28;20120;-82
2022/02/17 16:27:51;;;;;;;5.72;0.98;;;;;;;;;;6222680;28;20046;-82
2022/02/17 16:30:53;;;;;;;6.65;1.17;;;;;;;;;;6251835;28;20125;-81
2022/02/17 16:33:57;;;;;;;4.97;0.82;;;;;;;;;;6251488;28;20052;-81
2022/02/17 16:36:59;;;;;;;7.63;1.35;;;;;;;;;;6226773;28;20124;-81
2022/02/17 16:40:06;;;;;;;6.78;1.25;;;;;;;;;;6242482;28;20499;-81
2022/02/17 16:43:08;;;;;;;6.40;1.05;;;;;;;;;;6226045;28;20092;-82
2022/02/17 16:46:10;;;;;;;4.35;1.00;;;;;;;;;;6236200;28;20049;-80
2022/02/17 16:49:12;;;;;;;3.40;1.02;;;;;;;;;;6221218;28;20102;-80
2022/02/17 16:52:16;;;;;;;4.63;1.00;;;;;;;;;;6221957;28;20100;-82
2022/02/17 16:55:18;;;;;;;3.70;0.93;;;;;;;;;;6232670;28;20054;-80
2022/02/17 16:58:20;;;;;;;5.50;1.17;;;;;;;;;;6242846;28;20129;-80
2022/02/17 17:01:26;;;;;;;5.68;1.13;;;;;;;;;;6233236;28;20132;-81
2022/02/17 17:04:28;;;;;;;6.60;1.45;;;;;;;;;;6240041;28;20602;-81
2022/02/17 17:07:31;;;;;;;5.63;0.93;;;;;;;;;;6223833;28;20129;-80
2022/02/17 17:10:32;;;;;;;2.65;0.90;;;;;;;;;;6266761;28;20041;-80
2022/02/17 17:13:36;;;;;;;5.85;1.23;;;;;;;;;;6257347;28;20049;-81
2022/02/17 17:16:37;;;;;;;4.95;0.82;;;;;;;;;;6238922;28;20055;-80
2022/02/17 17:19:39;;;;;;;4.78;1.10;;;;;;;;;;6257182;28;20172;-82
2022/02/17 17:22:40;;;;;;;7.82;1.30;;;;;;;;;;6239688;28;20052;-82
2022/02/17 17:25:42;;;;;;;5.60;1.25;;;;;;;;;;6241147;28;20053;-80
2022/02/17 17:28:44;;;;;;;9.07;2.60;;;;;;;;;;6240707;28;20046;-81
2022/02/17 17:31:46;;;;;;;5.22;2.20;;;;;;;;;;6238385;28;20046;-83
2022/02/17 17:34:49;;;;;;;5.57;1.52;;;;;;;;;;6240261;28;20723;-81
2022/02/17 17:37:50;;;;;;;10.30;3.90;;;;;;;;;;6255591;28;20059;-82
2022/02/17 17:40:53;;;;;;;15.30;5.15;;;;;;;;;;6237873;28;20041;-82
2022/02/17 17:43:55;;;;;;;5.40;1.40;;;;;;;;;;6238354;28;20054;-81
2022/02/17 17:46:59;;;;;;;4.90;0.95;;;;;;;;;;6233257;28;20042;-81
2022/02/17 17:50:01;;;;;;;8.52;1.92;;;;;;;;;;6235904;28;20049;-81
2022/02/17 17:53:08;;;;;;;15.80;6.45;;;;;;;;;;6241113;28;20826;-80
2022/02/17 17:56:11;;;;;;;6.00;0.70;;;;;;;;;;6233270;28;20045;-82
2022/02/17 17:59:12;;;;;;;5.00;1.45;;;;;;;;;;6222600;28;20065;-81
2022/02/17 18:02:14;;;;;;;7.32;1.52;;;;;;;;;;6217235;28;20038;-80
2022/02/17 18:05:15;;;;;;;5.78;1.23;;;;;;;;;;6241460;28;20049;-80
2022/02/17 18:08:17;;;;;;;3.95;0.90;;;;;;;;;;6256922;28;20422;-83
2022/02/17 18:11:19;;;;;;;5.20;1.10;;;;;;;;;;6244425;28;20682;-82
2022/02/17 18:14:21;;;;;;;33.25;11.80;;;;;;;;;;6241272;28;20064;-80
2022/02/17 18:17:23;;;;;;;3.28;0.85;;;;;;;;;;6241735;28;20402;-80
2022/02/17 18:20:25;;;;;;;8.27;2.80;;;;;;;;;;6244035;28;20749;-82